Terminal Aerodrome Forecast
Issued by NWS Cleveland, OH

Home | Current Version | Previous Version | Text Only | Print | Product List | Glossary On
Versions: 1 2 3 4 5 6 7 8 9 10 11 12 13 14 15 16 17 18 19 20 21 22 23 24 25 26 27 28 29 30 31
000
FTUS41 KCLE 301100
TAFCLE
TAF
KCLE 301120Z 3012/3118 19010KT P6SM BKN250
     FM301400 20010G20KT P6SM SCT120 BKN250
     FM302200 22010G20KT P6SM VCTS BKN060CB OVC120
     FM310900 22009KT 6SM -TSRA OVC035CB
     FM311200 23009KT 4SM BR OVC015
     FM311400 23009KT P6SM OVC025=

USA.gov is the U.S. government's official web portal to all federal, state and local government web resources and services.